Time,TemperatureF,DewpointF,PressureIn,WindDirection,WindDirectionDegrees,WindSpeedMPH,WindSpeedGustMPH,Humidity,HourlyPrecipIn,Conditions,Clouds,dailyrainin,SoftwareType,DateUTC
2013-10-22 00:10:00,49.9,46.0,30.13,NE,52,4.0,6.0,85,0.00,,,0.00,weatherlink.com 1.10,2013-10-22 07:10:00,
2013-10-22 00:25:00,49.1,45.0,30.13,NE,55,4.0,7.0,85,0.00,,,0.00,weatherlink.com 1.10,2013-10-22 07:25:00,
2013-10-22 00:40:00,49.1,45.0,30.13,NE,51,4.0,6.0,86,0.00,,,0.00,weatherlink.com 1.10,2013-10-22 07:40:00,
2013-10-22 00:55:00,48.5,45.0,30.13,NE,51,5.0,7.0,86,0.00,,,0.00,weatherlink.com 1.10,2013-10-22 07:55:00,
2013-10-22 01:10:00,48.1,44.0,30.13,NE,48,5.0,7.0,87,0.00,,,0.00,weatherlink.com 1.10,2013-10-22 08:10:00,
2013-10-22 01:25:00,48.2,44.0,30.13,NE,50,4.0,6.0,86,0.00,,,0.00,weatherlink.com 1.10,2013-10-22 08:25:00,
2013-10-22 01:40:00,47.6,44.0,30.14,NE,41,3.0,8.0,87,0.00,,,0.00,weatherlink.com 1.10,2013-10-22 08:40:00,
2013-10-22 01:56:00,47.2,44.0,30.14,NE,38,3.0,5.0,88,0.00,,,0.00,weatherlink.com 1.10,2013-10-22 08:56:00,
2013-10-22 02:11:00,47.0,44.0,30.14,NE,51,4.0,6.0,88,0.00,,,0.00,weatherlink.com 1.10,2013-10-22 09:11:00,
2013-10-22 02:26:00,46.7,43.0,30.14,NE,47,2.0,6.0,88,0.00,,,0.00,weatherlink.com 1.10,2013-10-22 09:26:00,
2013-10-22 02:41:00,46.4,43.0,30.15,NE,50,3.0,5.0,88,0.00,,,0.00,weatherlink.com 1.10,2013-10-22 09:41:00,
2013-10-22 02:56:00,45.9,43.0,30.14,NE,40,5.0,6.0,89,0.00,,,0.00,weatherlink.com 1.10,2013-10-22 09:56:00,
2013-10-22 03:11:00,46.0,43.0,30.14,NE,47,4.0,7.0,89,0.00,,,0.00,weatherlink.com 1.10,2013-10-22 10:11:00,
2013-10-22 03:26:00,45.4,42.0,30.14,NE,45,4.0,6.0,89,0.00,,,0.00,weatherlink.com 1.10,2013-10-22 10:26:00,
2013-10-22 03:41:00,45.2,43.0,30.14,NE,37,7.0,7.0,90,0.00,,,0.00,weatherlink.com 1.10,2013-10-22 10:41:00,
2013-10-22 03:56:00,44.9,42.0,30.14,NE,55,4.0,6.0,90,0.00,,,0.00,weatherlink.com 1.10,2013-10-22 10:56:00,
2013-10-22 04:11:00,44.8,42.0,30.14,NE,42,4.0,6.0,90,0.00,,,0.00,weatherlink.com 1.10,2013-10-22 11:11:00,
2013-10-22 04:26:00,44.5,42.0,30.14,NE,52,4.0,5.0,90,0.00,,,0.00,weatherlink.com 1.10,2013-10-22 11:26:00,
2013-10-22 04:41:00,44.0,42.0,30.14,NE,46,2.0,5.0,91,0.00,,,0.00,weatherlink.com 1.10,2013-10-22 11:41:00,
2013-10-22 04:56:00,44.5,42.0,30.14,NE,48,4.0,5.0,90,0.00,,,0.00,weatherlink.com 1.10,2013-10-22 11:56:00,
2013-10-22 05:11:00,44.9,42.0,30.15,NE,48,2.0,7.0,90,0.00,,,0.00,weatherlink.com 1.10,2013-10-22 12:11:00,
2013-10-22 05:26:00,45.1,42.0,30.16,NE,55,2.0,4.0,89,0.00,,,0.00,weatherlink.com 1.10,2013-10-22 12:26:00,
2013-10-22 05:41:00,44.2,42.0,30.16,NE,46,1.0,5.0,90,0.00,,,0.00,weatherlink.com 1.10,2013-10-22 12:41:00,
2013-10-22 05:56:00,43.6,41.0,30.16,NNE,26,5.0,5.0,90,0.00,,,0.00,weatherlink.com 1.10,2013-10-22 12:56:00,
2013-10-22 06:11:00,43.4,41.0,30.16,NE,41,5.0,6.0,91,0.00,,,0.00,weatherlink.com 1.10,2013-10-22 13:11:00,
2013-10-22 06:26:00,43.0,41.0,30.17,NE,45,4.0,5.0,91,0.00,,,0.00,weatherlink.com 1.10,2013-10-22 13:26:00,
2013-10-22 06:41:00,42.7,40.0,30.17,NE,55,3.0,4.0,91,0.00,,,0.00,weatherlink.com 1.10,2013-10-22 13:41:00,
2013-10-22 06:56:00,42.6,41.0,30.17,NE,55,6.0,6.0,92,0.00,,,0.00,weatherlink.com 1.10,2013-10-22 13:56:00,
2013-10-22 07:11:00,42.4,40.0,30.17,NE,45,4.0,8.0,92,0.00,,,0.00,weatherlink.com 1.10,2013-10-22 14:11:00,
2013-10-22 07:26:00,42.3,40.0,30.17,NE,50,3.0,6.0,92,0.00,,,0.00,weatherlink.com 1.10,2013-10-22 14:26:00,
2013-10-22 07:41:00,41.6,40.0,30.17,NE,41,3.0,6.0,92,0.00,,,0.00,weatherlink.com 1.10,2013-10-22 14:41:00,
2013-10-22 07:56:00,41.6,40.0,30.18,NE,41,2.0,5.0,93,0.00,,,0.00,weatherlink.com 1.10,2013-10-22 14:56:00,
2013-10-22 08:11:00,42.5,41.0,30.18,ENE,60,1.0,5.0,93,0.00,,,0.00,weatherlink.com 1.10,2013-10-22 15:11:00,
2013-10-22 08:26:00,43.3,41.0,30.18,NE,45,2.0,4.0,92,0.00,,,0.00,weatherlink.com 1.10,2013-10-22 15:26:00,
2013-10-22 08:41:00,45.6,43.0,30.19,NE,45,0.0,2.0,89,0.00,,,0.00,weatherlink.com 1.10,2013-10-22 15:41:00,
2013-10-22 08:56:00,46.5,43.0,30.19,NE,41,0.0,1.0,87,0.00,,,0.00,weatherlink.com 1.10,2013-10-22 15:56:00,
2013-10-22 09:26:00,47.7,44.0,30.18,NE,38,1.0,2.0,86,0.00,,,0.00,weatherlink.com 1.10,2013-10-22 16:26:00,
2013-10-22 09:41:00,48.8,44.0,30.18,ENE,66,1.0,3.0,84,0.00,,,0.00,weatherlink.com 1.10,2013-10-22 16:41:00,
2013-10-22 09:57:00,51.9,46.0,30.17,South,173,1.0,4.0,79,0.00,,,0.00,weatherlink.com 1.10,2013-10-22 16:57:00,
2013-10-22 10:12:00,52.9,46.0,30.17,South,176,0.0,4.0,78,0.00,,,0.00,weatherlink.com 1.10,2013-10-22 17:12:00,
2013-10-22 10:27:00,54.5,47.0,30.16,South,180,0.0,3.0,76,0.00,,,0.00,weatherlink.com 1.10,2013-10-22 17:27:00,
2013-10-22 10:42:00,58.7,48.0,30.16,South,180,2.0,4.0,68,0.00,,,0.00,weatherlink.com 1.10,2013-10-22 17:42:00,
2013-10-22 10:57:00,58.7,48.0,30.15,South,183,1.0,4.0,67,0.00,,,0.00,weatherlink.com 1.10,2013-10-22 17:57:00,
2013-10-22 11:12:00,58.9,47.0,30.14,South,183,1.0,4.0,66,0.00,,,0.00,weatherlink.com 1.10,2013-10-22 18:12:00,
2013-10-22 11:27:00,59.3,47.0,30.14,South,184,1.0,5.0,65,0.00,,,0.00,weatherlink.com 1.10,2013-10-22 18:27:00,
2013-10-22 11:42:00,61.3,48.0,30.14,South,181,3.0,5.0,62,0.00,,,0.00,weatherlink.com 1.10,2013-10-22 18:42:00,
2013-10-22 11:57:00,62.2,49.0,30.13,SSW,192,2.0,4.0,63,0.00,,,0.00,weatherlink.com 1.10,2013-10-22 18:57:00,
2013-10-22 12:12:00,65.0,49.0,30.12,SSW,192,2.0,3.0,57,0.00,,,0.00,weatherlink.com 1.10,2013-10-22 19:12:00,
2013-10-22 12:27:00,66.1,48.0,30.12,South,191,2.0,4.0,53,0.00,,,0.00,weatherlink.com 1.10,2013-10-22 19:27:00,
2013-10-22 12:42:00,65.8,49.0,30.11,South,178,1.0,4.0,54,0.00,,,0.00,weatherlink.com 1.10,2013-10-22 19:42:00,
2013-10-22 12:57:00,67.2,49.0,30.10,South,191,2.0,4.0,52,0.00,,,0.00,weatherlink.com 1.10,2013-10-22 19:57:00,
2013-10-22 13:12:00,68.0,48.0,30.09,SSW,192,3.0,4.0,49,0.00,,,0.00,weatherlink.com 1.10,2013-10-22 20:12:00,
2013-10-22 13:27:00,70.6,49.0,30.08,South,190,4.0,5.0,46,0.00,,,0.00,weatherlink.com 1.10,2013-10-22 20:27:00,
2013-10-22 13:42:00,71.5,50.0,30.08,South,185,2.0,6.0,46,0.00,,,0.00,weatherlink.com 1.10,2013-10-22 20:42:00,
2013-10-22 13:58:00,70.7,48.0,30.07,WNW,282,2.0,5.0,45,0.00,,,0.00,weatherlink.com 1.10,2013-10-22 20:58:00,
2013-10-22 14:12:00,71.8,50.0,30.06,South,190,1.0,5.0,46,0.00,,,0.00,weatherlink.com 1.10,2013-10-22 21:12:00,
2013-10-22 14:28:00,70.9,48.0,30.06,South,190,4.0,4.0,44,0.00,,,0.00,weatherlink.com 1.10,2013-10-22 21:28:00,
2013-10-22 14:43:00,72.4,50.0,30.05,South,173,0.0,3.0,45,0.00,,,0.00,weatherlink.com 1.10,2013-10-22 21:43:00,
2013-10-22 14:58:00,73.7,49.0,30.05,SSE,168,2.0,4.0,42,0.00,,,0.00,weatherlink.com 1.10,2013-10-22 21:58:00,
2013-10-22 15:13:00,73.4,50.0,30.05,SE,142,1.0,4.0,44,0.00,,,0.00,weatherlink.com 1.10,2013-10-22 22:13:00,
2013-10-22 15:28:00,73.3,49.0,30.04,South,186,1.0,4.0,43,0.00,,,0.00,weatherlink.com 1.10,2013-10-22 22:28:00,
2013-10-22 15:43:00,73.3,49.0,30.05,South,176,1.0,6.0,42,0.00,,,0.00,weatherlink.com 1.10,2013-10-22 22:43:00,
2013-10-22 15:58:00,73.1,48.0,30.04,SSW,202,2.0,4.0,41,0.00,,,0.00,weatherlink.com 1.10,2013-10-22 22:58:00,
2013-10-22 16:13:00,73.1,50.0,30.04,South,187,2.0,4.0,44,0.00,,,0.00,weatherlink.com 1.10,2013-10-22 23:13:00,
2013-10-22 16:28:00,73.7,47.0,30.04,South,190,0.0,5.0,39,0.00,,,0.00,weatherlink.com 1.10,2013-10-22 23:28:00,
2013-10-22 16:43:00,73.9,50.0,30.03,South,191,0.0,3.0,43,0.00,,,0.00,weatherlink.com 1.10,2013-10-22 23:43:00,
2013-10-22 16:58:00,69.9,51.0,30.03,South,182,0.0,2.0,51,0.00,,,0.00,weatherlink.com 1.10,2013-10-22 23:58:00,
2013-10-22 17:13:00,67.1,50.0,30.03,South,182,1.0,3.0,54,0.00,,,0.00,weatherlink.com 1.10,2013-10-23 00:13:00,
2013-10-22 17:28:00,65.9,49.0,30.02,South,182,0.0,2.0,54,0.00,,,0.00,weatherlink.com 1.10,2013-10-23 00:28:00,
2013-10-22 17:43:00,63.1,49.0,30.02,SSE,152,1.0,4.0,61,0.00,,,0.00,weatherlink.com 1.10,2013-10-23 00:43:00,
2013-10-22 17:58:00,60.5,50.0,30.02,NE,34,6.0,7.0,68,0.00,,,0.00,weatherlink.com 1.10,2013-10-23 00:58:00,
2013-10-22 18:13:00,58.0,49.0,30.02,NNE,32,7.0,10.0,73,0.00,,,0.00,weatherlink.com 1.10,2013-10-23 01:13:00,
2013-10-22 18:28:00,56.9,49.0,30.02,NE,46,6.0,10.0,74,0.00,,,0.00,weatherlink.com 1.10,2013-10-23 01:28:00,
2013-10-22 18:43:00,56.7,49.0,30.03,NE,56,7.0,9.0,75,0.00,,,0.00,weatherlink.com 1.10,2013-10-23 01:43:00,
2013-10-22 19:13:00,55.9,49.0,30.03,NE,51,8.0,10.0,78,0.00,,,0.00,weatherlink.com 1.10,2013-10-23 02:13:00,
2013-10-22 19:28:00,55.9,49.0,30.04,NE,38,6.0,11.0,78,0.00,,,0.00,weatherlink.com 1.10,2013-10-23 02:28:00,
2013-10-22 19:43:00,55.6,49.0,30.04,NE,43,6.0,9.0,79,0.00,,,0.00,weatherlink.com 1.10,2013-10-23 02:43:00,
2013-10-22 19:58:00,54.4,49.0,30.04,NE,50,5.0,9.0,81,0.00,,,0.00,weatherlink.com 1.10,2013-10-23 02:58:00,
2013-10-22 20:13:00,54.4,49.0,30.04,NE,39,5.0,8.0,81,0.00,,,0.00,weatherlink.com 1.10,2013-10-23 03:13:00,
2013-10-22 20:28:00,53.7,48.0,30.05,NE,38,5.0,8.0,82,0.00,,,0.00,weatherlink.com 1.10,2013-10-23 03:28:00,
2013-10-22 20:43:00,53.3,49.0,30.05,NNE,33,2.0,8.0,85,0.00,,,0.00,weatherlink.com 1.10,2013-10-23 03:43:00,
2013-10-22 20:58:00,53.2,49.0,30.05,NE,44,3.0,10.0,85,0.00,,,0.00,weatherlink.com 1.10,2013-10-23 03:58:00,
2013-10-22 21:13:00,53.1,48.0,30.06,NNE,29,4.0,10.0,84,0.00,,,0.00,weatherlink.com 1.10,2013-10-23 04:13:00,
2013-10-22 21:28:00,52.7,48.0,30.06,NE,45,6.0,10.0,85,0.00,,,0.00,weatherlink.com 1.10,2013-10-23 04:28:00,
2013-10-22 21:43:00,51.6,48.0,30.07,NE,44,5.0,8.0,86,0.00,,,0.00,weatherlink.com 1.10,2013-10-23 04:43:00,
2013-10-22 21:58:00,50.9,47.0,30.07,NNE,26,6.0,7.0,87,0.00,,,0.00,weatherlink.com 1.10,2013-10-23 04:58:00,
2013-10-22 22:13:00,50.3,47.0,30.07,NE,50,3.0,6.0,88,0.00,,,0.00,weatherlink.com 1.10,2013-10-23 05:13:00,
2013-10-22 22:28:00,50.5,47.0,30.08,NE,55,3.0,8.0,88,0.00,,,0.00,weatherlink.com 1.10,2013-10-23 05:28:00,
2013-10-22 22:43:00,50.8,47.0,30.08,NE,40,5.0,7.0,87,0.00,,,0.00,weatherlink.com 1.10,2013-10-23 05:43:00,
2013-10-22 22:58:00,50.0,47.0,30.08,NE,42,4.0,7.0,88,0.00,,,0.00,weatherlink.com 1.10,2013-10-23 05:58:00,
2013-10-22 23:13:00,49.5,46.0,30.08,NE,41,5.0,7.0,89,0.00,,,0.00,weatherlink.com 1.10,2013-10-23 06:13:00,
2013-10-22 23:28:00,49.7,46.0,30.08,NE,50,3.0,8.0,88,0.00,,,0.00,weatherlink.com 1.10,2013-10-23 06:28:00,
2013-10-22 23:43:00,48.9,46.0,30.08,NE,50,5.0,8.0,89,0.00,,,0.00,weatherlink.com 1.10,2013-10-23 06:43:00,
2013-10-22 23:58:00,48.6,46.0,30.08,NE,55,5.0,8.0,90,0.00,,,0.00,weatherlink.com 1.10,2013-10-23 06:58:00,